NCAR-RAP Real-Time Weather Data

Output produced by METARs form (19 June 2018  07:01 UTC)
found at http://weather.rap.ucar.edu/surface/
 
Conditions at: KMCF observed 19 June 2018  05:56 UTC
Temperature: 26.3°C (79°F)
Dewpoint: 22.9°C (73°F) [RH = 82%]
Pressure (altimeter): 30.05 inches Hg (1017.7 mb)
[Sea-level pressure: 1017.9 mb]
Winds: from the ESE (110 degrees) at 8 MPH (7 knots; 3.6 m/s)
Visibility: 10 or more miles (16+ km)
Ceiling: at least 12,000 feet AGL
Clouds: sky clear below 12,000 feet AGL
Present Weather:
SOME DATA ABOVE MAY BE INACCURATE!!!
"$" is an indication the sensor requires maintenance
KMCF 190556Z AUTO 11007KT 10SM CLR 26/23 A3005 RMK AO2 SLP179 60000 T02630229 10304 20263 58004 FZRANO $

Conditions at: KMCF observed 19 June 2018  04:56 UTC
Temperature: 27.1°C (81°F)
Dewpoint: 22.7°C (73°F) [RH = 77%]
Pressure (altimeter): 30.06 inches Hg (1018.0 mb)
[Sea-level pressure: 1018.2 mb]
Winds: from the E (100 degrees) at 5 MPH (4 knots; 2.1 m/s)
Visibility: 10 or more miles (16+ km)
Ceiling: at least 12,000 feet AGL
Clouds: few clouds at 3300 feet AGL
Present Weather:
SOME DATA ABOVE MAY BE INACCURATE!!!
"$" is an indication the sensor requires maintenance
KMCF 190456Z AUTO 10004KT 10SM FEW033 27/23 A3006 RMK AO2 DZE08 SLP182 P0000 T02710227 403370245 FZRANO $

Conditions at: KMCF observed 19 June 2018  04:08 UTC
Temperature: 27.0°C (81°F)
Dewpoint: 23.0°C (73°F) [RH = 79%]
Pressure (altimeter): 30.07 inches Hg (1018.4 mb)
[Sea-level pressure: 1018.6 mb]
Winds: from the E (80 degrees) at 7 MPH (6 knots; 3.1 m/s)
Visibility: 10 or more miles (16+ km)
Ceiling: 4000 feet AGL
Clouds: overcast cloud deck at 4000 feet AGL
Present Weather:
SOME DATA ABOVE MAY BE INACCURATE!!!
"$" is an indication the sensor requires maintenance
KMCF 190408Z AUTO 08006KT 10SM OVC040 27/23 A3007 RMK AO2 DZE08 SLP186 FZRANO $

Conditions at: KMCF observed 19 June 2018  03:56 UTC
Temperature: 27.3°C (81°F)
Dewpoint: 23.1°C (74°F) [RH = 78%]
Pressure (altimeter): 30.06 inches Hg (1018.0 mb)
[Sea-level pressure: 1018.2 mb]
Winds: calm
Visibility: 10 or more miles (16+ km)
Ceiling: 3800 feet AGL
Clouds: overcast cloud deck at 3800 feet AGL
Present Weather: -DZ  (light drizzle)
SOME DATA ABOVE MAY BE INACCURATE!!!
"$" is an indication the sensor requires maintenance
KMCF 190356Z AUTO 00000KT 10SM -DZ OVC038 27/23 A3006 RMK AO2 LTG DSNT N DZE05DZB52 SLP182 P0000 T02730231 FZRANO $

Conditions at: KMCF observed 19 June 2018  03:52 UTC
Temperature: 27.0°C (81°F)
Dewpoint: 23.0°C (73°F) [RH = 79%]
Pressure (altimeter): 30.06 inches Hg (1018.0 mb)
[Sea-level pressure: 1018.2 mb]
Winds: calm
Visibility: 10 or more miles (16+ km)
Ceiling: 3800 feet AGL
Clouds: overcast cloud deck at 3800 feet AGL
Present Weather: -DZ  (light drizzle)
SOME DATA ABOVE MAY BE INACCURATE!!!
"$" is an indication the sensor requires maintenance
KMCF 190352Z AUTO 00000KT 10SM -DZ OVC038 27/23 A3006 RMK AO2 LTG DSNT N DZE05DZB52 SLP182 FZRANO $

Conditions at: KMCF observed 19 June 2018  02:57 UTC
Temperature: 28.0°C (82°F)
Dewpoint: 24.0°C (75°F) [RH = 79%]
Pressure (altimeter): 30.06 inches Hg (1018.0 mb)
[Sea-level pressure: 1018.2 mb]
Winds: calm
Visibility: 10 or more miles (16+ km)
Ceiling: at least 12,000 feet AGL
Clouds: sky clear below 12,000 feet AGL
Present Weather:
SOME DATA ABOVE MAY BE INACCURATE!!!
"$" is an indication the sensor requires maintenance
KMCF 190257Z AUTO 00000KT 10SM CLR 28/24 A3006 RMK AO2 SLP182 FZRANO $

Conditions at: KMCF observed 19 June 2018  02:56 UTC
Temperature: 27.6°C (82°F)
Dewpoint: 23.6°C (74°F) [RH = 79%]
Pressure (altimeter): 30.06 inches Hg (1018.0 mb)
[Sea-level pressure: 1018.2 mb]
Winds: calm
Visibility: 10 or more miles (16+ km)
Ceiling: at least 12,000 feet AGL
Clouds: few clouds at 7000 feet AGL
Present Weather: -DZ  (light drizzle)
SOME DATA ABOVE MAY BE INACCURATE!!!
"$" is an indication the sensor requires maintenance
KMCF 190256Z AUTO 00000KT 10SM -DZ FEW070 28/24 A3006 RMK AO2 DZB50E52DZB55 SLP182 P0000 60000 T02760236 52007 FZRANO $

Conditions at: KMCF observed 19 June 2018  02:55 UTC
Temperature: 28.0°C (82°F)
Dewpoint: 24.0°C (75°F) [RH = 79%]
Pressure (altimeter): 30.06 inches Hg (1018.0 mb)
[Sea-level pressure: 1018.2 mb]
Winds: calm
Visibility: 10 or more miles (16+ km)
Ceiling: at least 12,000 feet AGL
Clouds: few clouds at 7000 feet AGL
Present Weather: -DZ  (light drizzle)
SOME DATA ABOVE MAY BE INACCURATE!!!
"$" is an indication the sensor requires maintenance
KMCF 190255Z AUTO 00000KT 10SM -DZ FEW070 28/24 A3006 RMK AO2 DZB50E52DZB55 SLP182 FZRANO $

Conditions at: KMCF observed 19 June 2018  02:52 UTC
Temperature: 28.0°C (82°F)
Dewpoint: 24.0°C (75°F) [RH = 79%]
Pressure (altimeter): 30.05 inches Hg (1017.7 mb)
[Sea-level pressure: 1017.9 mb]
Winds: calm
Visibility: 10 or more miles (16+ km)
Ceiling: at least 12,000 feet AGL
Clouds: few clouds at 6000 feet AGL
Present Weather:
SOME DATA ABOVE MAY BE INACCURATE!!!
"$" is an indication the sensor requires maintenance
KMCF 190252Z AUTO 00000KT 10SM FEW060 28/24 A3005 RMK AO2 DZB50E52 SLP179 FZRANO $

Conditions at: KMCF observed 19 June 2018  02:50 UTC
Temperature: 28.0°C (82°F)
Dewpoint: 24.0°C (75°F) [RH = 79%]
Pressure (altimeter): 30.06 inches Hg (1018.0 mb)
[Sea-level pressure: 1018.2 mb]
Winds: calm
Visibility: 10 or more miles (16+ km)
Ceiling: at least 12,000 feet AGL
Clouds: few clouds at 6000 feet AGL
Present Weather: -DZ  (light drizzle)
SOME DATA ABOVE MAY BE INACCURATE!!!
"$" is an indication the sensor requires maintenance
KMCF 190250Z AUTO 00000KT 10SM -DZ FEW060 28/24 A3006 RMK AO2 DZB50 SLP182 FZRANO $

Conditions at: KMCF observed 19 June 2018  01:56 UTC
Temperature: 28.1°C (83°F)
Dewpoint: 23.2°C (74°F) [RH = 75%]
Pressure (altimeter): 30.05 inches Hg (1017.7 mb)
[Sea-level pressure: 1017.9 mb]
Winds: calm
Visibility: 10 or more miles (16+ km)
Ceiling: 5500 feet AGL
Clouds: overcast cloud deck at 5500 feet AGL
Present Weather:
SOME DATA ABOVE MAY BE INACCURATE!!!
"$" is an indication the sensor requires maintenance
KMCF 190156Z AUTO 00000KT 10SM OVC055 28/23 A3005 RMK AO2 LTG DSNT NW-N DZE05 SLP179 P0000 T02810232 FZRANO $

Conditions at: KMCF observed 19 June 2018  01:05 UTC
Temperature: 29.0°C (84°F)
Dewpoint: 23.0°C (73°F) [RH = 70%]
Pressure (altimeter): 30.05 inches Hg (1017.7 mb)
[Sea-level pressure: 1017.9 mb]
Winds: from the NW (320 degrees) at 3 MPH (3 knots; 1.6 m/s)
Visibility: 10 or more miles (16+ km)
Ceiling: at least 12,000 feet AGL
Clouds: few clouds at 6000 feet AGL
Present Weather:
SOME DATA ABOVE MAY BE INACCURATE!!!
"$" is an indication the sensor requires maintenance
KMCF 190105Z AUTO 32003KT 10SM FEW060 29/23 A3005 RMK AO2 DZE05 SLP179 FZRANO $

Conditions at: KMCF observed 19 June 2018  00:56 UTC
Temperature: 29.2°C (85°F)
Dewpoint: 22.6°C (73°F) [RH = 68%]
Pressure (altimeter): 30.04 inches Hg (1017.4 mb)
[Sea-level pressure: 1017.5 mb]
Winds: from the NNW (340 degrees) at 5 MPH (4 knots; 2.1 m/s)
Visibility: 10 or more miles (16+ km)
Ceiling: at least 12,000 feet AGL
Clouds: few clouds at 5500 feet AGL
Present Weather: -DZ  (light drizzle)
SOME DATA ABOVE MAY BE INACCURATE!!!
"$" is an indication the sensor requires maintenance
KMCF 190056Z AUTO 34004KT 10SM -DZ FEW055 29/23 A3004 RMK AO2 DZB54 SLP175 P0000 T02920226 FZRANO $

Conditions at: KMCF observed 19 June 2018  00:54 UTC
Temperature: 29.0°C (84°F)
Dewpoint: 23.0°C (73°F) [RH = 70%]
Pressure (altimeter): 30.05 inches Hg (1017.7 mb)
[Sea-level pressure: 1017.9 mb]
Winds: from the NNW (340 degrees) at 5 MPH (4 knots; 2.1 m/s)
Visibility: 10 or more miles (16+ km)
Ceiling: at least 12,000 feet AGL
Clouds: few clouds at 5500 feet AGL
Present Weather: -DZ  (light drizzle)
SOME DATA ABOVE MAY BE INACCURATE!!!
"$" is an indication the sensor requires maintenance
KMCF 190054Z AUTO 34004KT 10SM -DZ FEW055 29/23 A3005 RMK AO2 DZB54 SLP179 FZRANO $

Conditions at: KMCF observed 18 June 2018  23:56 UTC
Temperature: 30.4°C (87°F)
Dewpoint: 23.8°C (75°F) [RH = 68%]
Pressure (altimeter): 30.04 inches Hg (1017.4 mb)
[Sea-level pressure: 1017.5 mb]
Winds: from the N (360 degrees) at 3 MPH (3 knots; 1.6 m/s)
Visibility: 10 or more miles (16+ km)
Ceiling: 4900 feet AGL
Clouds: overcast cloud deck at 4900 feet AGL
Present Weather: VCTS  (thunderstorm in vicinity)
SOME DATA ABOVE MAY BE INACCURATE!!!
"$" is an indication the sensor requires maintenance
KMCF 182356Z AUTO 36003KT 10SM VCTS OVC049 30/24 A3004 RMK AO2 SLP175 T03040238 10337 20304 55001 FZRANO $

Conditions at: KMCF observed 18 June 2018  22:56 UTC
Temperature: 32.2°C (90°F)
Dewpoint: 23.7°C (75°F) [RH = 61%]
Pressure (altimeter): 30.02 inches Hg (1016.7 mb)
[Sea-level pressure: 1016.9 mb]
Winds: from the NW (310 degrees) at 6 MPH (5 knots; 2.6 m/s)
Visibility: 10 or more miles (16+ km)
Ceiling: at least 12,000 feet AGL
Clouds: scattered clouds at 6500 feet AGL
scattered clouds at 8000 feet AGL
Present Weather:
SOME DATA ABOVE MAY BE INACCURATE!!!
"$" is an indication the sensor requires maintenance
KMCF 182256Z AUTO 31005KT 10SM SCT065 SCT080 32/24 A3002 RMK AO2 SLP169 T03220237 FZRANO $

Conditions at: KMCF observed 18 June 2018  21:56 UTC
Temperature: 32.9°C (91°F)
Dewpoint: 22.3°C (72°F) [RH = 54%]
Pressure (altimeter): 30.03 inches Hg (1017.0 mb)
[Sea-level pressure: 1017.2 mb]
Winds: from the WNW (300 degrees) at 6 MPH (5 knots; 2.6 m/s)
Visibility: 10 or more miles (16+ km)
Ceiling: at least 12,000 feet AGL
Clouds: scattered clouds at 5500 feet AGL
Present Weather:
SOME DATA ABOVE MAY BE INACCURATE!!!
"$" is an indication the sensor requires maintenance
KMCF 182156Z AUTO 30005KT 10SM SCT055 33/22 A3003 RMK AO2 LTG DSNT SE SLP172 T03290223 FZRANO $

Conditions at: KMCF observed 18 June 2018  20:56 UTC
Temperature: 33.5°C (92°F)
Dewpoint: 22.6°C (73°F) [RH = 53%]
Pressure (altimeter): 30.04 inches Hg (1017.4 mb)
[Sea-level pressure: 1017.5 mb]
Winds: calm
Visibility: 10 or more miles (16+ km)
Ceiling: at least 12,000 feet AGL
Clouds: few clouds at 8000 feet AGL
Present Weather:
SOME DATA ABOVE MAY BE INACCURATE!!!
"$" is an indication the sensor requires maintenance
KMCF 182056Z AUTO 00000KT 10SM FEW080 34/23 A3004 RMK AO2 LTG DSNT E SLP175 T03350226 57020 FZRANO $

Conditions at: KMCF observed 18 June 2018  19:56 UTC
Temperature: 32.5°C (90°F)
Dewpoint: 22.5°C (72°F) [RH = 56%]
Pressure (altimeter): 30.05 inches Hg (1017.7 mb)
[Sea-level pressure: 1017.9 mb]
Winds: from the W (280 degrees) at 6 MPH (5 knots; 2.6 m/s)
Visibility: 10 or more miles (16+ km)
Ceiling: at least 12,000 feet AGL
Clouds: sky clear below 12,000 feet AGL
Present Weather:
SOME DATA ABOVE MAY BE INACCURATE!!!
"$" is an indication the sensor requires maintenance
KMCF 181956Z AUTO 28005KT 10SM CLR 33/23 A3005 RMK AO2 SLP179 T03250225 FZRANO $

Conditions at: KMCF observed 18 June 2018  18:56 UTC
Temperature: 32.5°C (90°F)
Dewpoint: 22.5°C (72°F) [RH = 56%]
Pressure (altimeter): 30.08 inches Hg (1018.7 mb)
Winds: from the WNW (290 degrees) at 3 MPH (3 knots; 1.6 m/s)
Visibility: 10 or more miles (16+ km)
Ceiling: at least 12,000 feet AGL
Clouds: few clouds at 4600 feet AGL
Present Weather:
SOME DATA ABOVE MAY BE INACCURATE!!!
"$" is an indication the sensor requires maintenance
KMCF 181856Z AUTO 29003KT 10SM FEW046 33/23 A3008 RMK AO2 SLPNO T03250225 FZRANO $

Conditions at: KMCF observed 18 June 2018  17:56 UTC
Temperature: 31.3°C (88°F)
Dewpoint: 23.1°C (74°F) [RH = 62%]
Pressure (altimeter): 30.10 inches Hg (1019.4 mb)
Winds: from the W (270 degrees) at 5 MPH (4 knots; 2.1 m/s)
Visibility: 10 or more miles (16+ km)
Ceiling: 4400 feet AGL
Clouds: broken clouds at 4400 feet AGL
Present Weather:
SOME DATA ABOVE MAY BE INACCURATE!!!
"$" is an indication the sensor requires maintenance
KMCF 181756Z AUTO 27004KT 10SM BKN044 31/23 A3010 RMK AO2 SLPNO 60000 T03130231 10318 20269 57014 FZRANO $

Conditions at: KMCF observed 18 June 2018  16:56 UTC
Temperature: 30.5°C (87°F)
Dewpoint: 22.4°C (72°F) [RH = 62%]
Pressure (altimeter): 30.11 inches Hg (1019.7 mb)
Winds: from the SSW (200 degrees) at 6 MPH (5 knots; 2.6 m/s)
Visibility: 10 or more miles (16+ km)
Ceiling: 3900 feet AGL
Clouds: broken clouds at 3900 feet AGL
Present Weather:
SOME DATA ABOVE MAY BE INACCURATE!!!
"$" is an indication the sensor requires maintenance
KMCF 181656Z AUTO 20005KT 10SM BKN039 31/22 A3011 RMK AO2 DZB1558E1559 SLPNO P0000 T03050224 FZRANO $

Conditions at: KMCF observed 18 June 2018  15:59 UTC
Temperature: 30.0°C (86°F)
Dewpoint: 23.0°C (73°F) [RH = 66%]
Pressure (altimeter): 30.13 inches Hg (1020.4 mb)
Winds: from the S (190 degrees) at 8 MPH (7 knots; 3.6 m/s)
Visibility: 10 or more miles (16+ km)
Ceiling: 3400 feet AGL
Clouds: broken clouds at 3400 feet AGL
broken clouds at 4300 feet AGL
Present Weather:
SOME DATA ABOVE MAY BE INACCURATE!!!
"$" is an indication the sensor requires maintenance
KMCF 181559Z AUTO 19007KT 10SM BKN034 BKN043 30/23 A3013 RMK AO2 DZB58E59 SLPNO FZRANO $

Conditions at: KMCF observed 18 June 2018  15:58 UTC
Temperature: 30.0°C (86°F)
Dewpoint: 23.0°C (73°F) [RH = 66%]
Pressure (altimeter): 30.13 inches Hg (1020.4 mb)
Winds: from the SSW (200 degrees) at 8 MPH (7 knots; 3.6 m/s)
Visibility: 10 or more miles (16+ km)
Ceiling: 3400 feet AGL
Clouds: broken clouds at 3400 feet AGL
broken clouds at 4300 feet AGL
Present Weather: -DZ  (light drizzle)
SOME DATA ABOVE MAY BE INACCURATE!!!
"$" is an indication the sensor requires maintenance
KMCF 181558Z AUTO 20007KT 10SM -DZ BKN034 BKN043 30/23 A3013 RMK AO2 DZB58 SLPNO FZRANO $

Conditions at: KMCF observed 18 June 2018  15:56 UTC
Temperature: 30.0°C (86°F)
Dewpoint: 22.7°C (73°F) [RH = 65%]
Pressure (altimeter): 30.13 inches Hg (1020.4 mb)
Winds: from the SSW (200 degrees) at 5 MPH (4 knots; 2.1 m/s)
Visibility: 10 or more miles (16+ km)
Ceiling: 3400 feet AGL
Clouds: broken clouds at 3400 feet AGL
broken clouds at 4500 feet AGL
Present Weather:
SOME DATA ABOVE MAY BE INACCURATE!!!
"$" is an indication the sensor requires maintenance
KMCF 181556Z AUTO 20004KT 10SM BKN034 BKN045 30/23 A3013 RMK AO2 RAB21E30 SLPNO P0000 T03000227 FZRANO $

Conditions at: KMCF observed 18 June 2018  15:30 UTC
Temperature: 30.0°C (86°F)
Dewpoint: 23.0°C (73°F) [RH = 66%]
Pressure (altimeter): 30.14 inches Hg (1020.7 mb)
Winds: from the SSW (200 degrees) at 6 MPH (5 knots; 2.6 m/s)
Visibility: 10 or more miles (16+ km)
Ceiling: 3400 feet AGL
Clouds: broken clouds at 3400 feet AGL
Present Weather:
SOME DATA ABOVE MAY BE INACCURATE!!!
"$" is an indication the sensor requires maintenance
KMCF 181530Z AUTO 20005KT 10SM BKN034 30/23 A3014 RMK AO2 RAB21E30 SLPNO FZRANO $

Conditions at: KMCF observed 18 June 2018  15:28 UTC
Temperature: 30.0°C (86°F)
Dewpoint: 23.0°C (73°F) [RH = 66%]
Pressure (altimeter): 30.14 inches Hg (1020.7 mb)
Winds: from the S (180 degrees) at 6 MPH (5 knots; 2.6 m/s)
Visibility: 10 or more miles (16+ km)
Ceiling: 3400 feet AGL
Clouds: broken clouds at 3400 feet AGL
Present Weather: -RA  (light rain)
SOME DATA ABOVE MAY BE INACCURATE!!!
"$" is an indication the sensor requires maintenance
KMCF 181528Z AUTO 18005KT 10SM -RA BKN034 30/23 A3014 RMK AO2 RAB21 SLPNO FZRANO $

Conditions at: KMCF observed 18 June 2018  15:23 UTC
Temperature: 30.0°C (86°F)
Dewpoint: 22.0°C (72°F) [RH = 62%]
Pressure (altimeter): 30.14 inches Hg (1020.7 mb)
Winds: from the SE (130 degrees) at 6 MPH (5 knots; 2.6 m/s)
Visibility: 10 or more miles (16+ km)
Ceiling: at least 12,000 feet AGL
Clouds: few clouds at 2900 feet AGL
scattered clouds at 3600 feet AGL
Present Weather: -RA  (light rain)
SOME DATA ABOVE MAY BE INACCURATE!!!
"$" is an indication the sensor requires maintenance
KMCF 181523Z AUTO 13005KT 10SM -RA FEW029 SCT036 30/22 A3014 RMK AO2 RAB21 SLPNO FZRANO $

Conditions at: KMCF observed 18 June 2018  15:21 UTC
Temperature: 30.0°C (86°F)
Dewpoint: 23.0°C (73°F) [RH = 66%]
Pressure (altimeter): 30.14 inches Hg (1020.7 mb)
Winds: from the ESE (110 degrees) at 5 MPH (4 knots; 2.1 m/s)
Visibility: 10 or more miles (16+ km)
Ceiling: at least 12,000 feet AGL
Clouds: few clouds at 2900 feet AGL
scattered clouds at 3600 feet AGL
Present Weather: -RA  (light rain)
SOME DATA ABOVE MAY BE INACCURATE!!!
"$" is an indication the sensor requires maintenance
KMCF 181521Z AUTO 11004KT 10SM -RA FEW029 SCT036 30/23 A3014 RMK AO2 RAB21 SLPNO FZRANO $

Conditions at: KMCF observed 18 June 2018  14:56 UTC
Temperature: 30.2°C (86°F)
Dewpoint: 23.1°C (74°F) [RH = 66%]
Pressure (altimeter): 30.14 inches Hg (1020.7 mb)
Winds: from the E (90 degrees) at 7 MPH (6 knots; 3.1 m/s)
Visibility: 10 or more miles (16+ km)
Ceiling: at least 12,000 feet AGL
Clouds: few clouds at 2800 feet AGL
scattered clouds at 3700 feet AGL
Present Weather:
SOME DATA ABOVE MAY BE INACCURATE!!!
"$" is an indication the sensor requires maintenance
KMCF 181456Z AUTO 09006KT 10SM FEW028 SCT037 30/23 A3014 RMK AO2 SLPNO 60000 T03020231 51007 FZRANO $

Conditions at: KMCF observed 18 June 2018  14:11 UTC
Temperature: 29.0°C (84°F)
Dewpoint: 24.0°C (75°F) [RH = 74%]
Pressure (altimeter): 30.14 inches Hg (1020.7 mb)
Winds: from the SE (130 degrees) at 6 MPH (5 knots; 2.6 m/s)
Visibility: 10 or more miles (16+ km)
Ceiling: 3000 feet AGL
Clouds: scattered clouds at 1900 feet AGL
broken clouds at 3000 feet AGL
Present Weather:
SOME DATA ABOVE MAY BE INACCURATE!!!
"$" is an indication the sensor requires maintenance
KMCF 181411Z AUTO 13005KT 10SM SCT019 BKN030 29/24 A3014 RMK AO2 SLPNO FZRANO $

Conditions at: KMCF observed 18 June 2018  13:56 UTC
Temperature: 29.2°C (85°F)
Dewpoint: 24.0°C (75°F) [RH = 74%]
Pressure (altimeter): 30.14 inches Hg (1020.7 mb)
Winds: from the SE (140 degrees) at 7 MPH (6 knots; 3.1 m/s)
Visibility: 10 or more miles (16+ km)
Ceiling: 1800 feet AGL
Clouds: broken clouds at 1800 feet AGL
Present Weather:
SOME DATA ABOVE MAY BE INACCURATE!!!
"$" is an indication the sensor requires maintenance
KMCF 181356Z AUTO 14006KT 10SM BKN018 29/24 A3014 RMK AO2 RAB34E43 SLPNO P0000 T02920240 FZRANO $

Conditions at: KMCF observed 18 June 2018  13:53 UTC
Temperature: 29.0°C (84°F)
Dewpoint: 24.0°C (75°F) [RH = 74%]
Pressure (altimeter): 30.14 inches Hg (1020.7 mb)
Winds: from the SE (130 degrees) at 7 MPH (6 knots; 3.1 m/s)
Visibility: 10 or more miles (16+ km)
Ceiling: 1800 feet AGL
Clouds: broken clouds at 1800 feet AGL
Present Weather:
SOME DATA ABOVE MAY BE INACCURATE!!!
"$" is an indication the sensor requires maintenance
KMCF 181353Z AUTO 13006KT 10SM BKN018 29/24 A3014 RMK AO2 RAB34E43 SLPNO FZRANO $

Conditions at: KMCF observed 18 June 2018  13:48 UTC
Temperature: 29.0°C (84°F)
Dewpoint: 24.0°C (75°F) [RH = 74%]
Pressure (altimeter): 30.14 inches Hg (1020.7 mb)
Winds: from the SE (140 degrees) at 5 MPH (4 knots; 2.1 m/s)
Visibility: 10 or more miles (16+ km)
Ceiling: at least 12,000 feet AGL
Clouds: scattered clouds at 1600 feet AGL
Present Weather:
SOME DATA ABOVE MAY BE INACCURATE!!!
"$" is an indication the sensor requires maintenance
KMCF 181348Z AUTO 14004KT 10SM SCT016 29/24 A3014 RMK AO2 RAB34E43 SLPNO FZRANO $

Conditions at: KMCF observed 18 June 2018  13:43 UTC
Temperature: 29.0°C (84°F)
Dewpoint: 24.0°C (75°F) [RH = 74%]
Pressure (altimeter): 30.14 inches Hg (1020.7 mb)
Winds: from the SE (140 degrees) at 6 MPH (5 knots; 2.6 m/s)
Visibility: 10 or more miles (16+ km)
Ceiling: 1600 feet AGL
Clouds: broken clouds at 1600 feet AGL
Present Weather:
SOME DATA ABOVE MAY BE INACCURATE!!!
"$" is an indication the sensor requires maintenance
KMCF 181343Z AUTO 14005KT 10SM BKN016 29/24 A3014 RMK AO2 RAB34E43 BKN V SCT SLPNO FZRANO $

Conditions at: KMCF observed 18 June 2018  13:39 UTC
Temperature: 29.0°C (84°F)
Dewpoint: 24.0°C (75°F) [RH = 74%]
Pressure (altimeter): 30.13 inches Hg (1020.4 mb)
Winds: from the ESE (120 degrees) at 7 MPH (6 knots; 3.1 m/s)
Visibility: 10 or more miles (16+ km)
Ceiling: at least 12,000 feet AGL
Clouds: scattered clouds at 1600 feet AGL
Present Weather: -RA  (light rain)
SOME DATA ABOVE MAY BE INACCURATE!!!
"$" is an indication the sensor requires maintenance
KMCF 181339Z AUTO 12006KT 10SM -RA SCT016 29/24 A3013 RMK AO2 RAB34 SLPNO FZRANO $

Conditions at: KMCF observed 18 June 2018  13:34 UTC
Temperature: 29.0°C (84°F)
Dewpoint: 24.0°C (75°F) [RH = 74%]
Pressure (altimeter): 30.13 inches Hg (1020.4 mb)
Winds: from the E (100 degrees) at 7 MPH (6 knots; 3.1 m/s)
Visibility: 10 or more miles (16+ km)
Ceiling: 1500 feet AGL
Clouds: broken clouds at 1500 feet AGL
Present Weather: -RA  (light rain)
SOME DATA ABOVE MAY BE INACCURATE!!!
"$" is an indication the sensor requires maintenance
KMCF 181334Z AUTO 10006KT 10SM -RA BKN015 29/24 A3013 RMK AO2 RAB34 BKN V SCT SLPNO FZRANO $

Conditions at: KMCF observed 18 June 2018  13:26 UTC
Temperature: 29.0°C (84°F)
Dewpoint: 25.0°C (77°F) [RH = 79%]
Pressure (altimeter): 30.13 inches Hg (1020.4 mb)
[Sea-level pressure: 1020.6 mb]
Winds: from the SE (130 degrees) at 8 MPH (7 knots; 3.6 m/s)
Visibility: 10 or more miles (16+ km)
Ceiling: 1600 feet AGL
Clouds: broken clouds at 1600 feet AGL
Present Weather:
SOME DATA ABOVE MAY BE INACCURATE!!!
"$" is an indication the sensor requires maintenance
KMCF 181326Z AUTO 13007KT 10SM BKN016 29/25 A3013 RMK AO2 SLP206 FZRANO $

Conditions at: KMCF observed 18 June 2018  08:56 UTC
Temperature: 25.4°C (78°F)
Dewpoint: 23.2°C (74°F) [RH = 88%]
Pressure (altimeter): 30.07 inches Hg (1018.4 mb)
[Sea-level pressure: 1018.6 mb]
Winds: from the ENE (70 degrees) at 6 MPH (5 knots; 2.6 m/s)
Visibility: 10 or more miles (16+ km)
Ceiling: at least 12,000 feet AGL
Clouds: sky clear below 12,000 feet AGL
Present Weather:
SOME DATA ABOVE MAY BE INACCURATE!!!
"$" is an indication the sensor requires maintenance
KMCF 180856Z AUTO 07005KT 10SM CLR 25/23 A3007 RMK AO2 DZB0756E01DZB10E22DZB25E46 SLP186 P0000 60000 T02540232 FZRANO $

Conditions at: KMCF observed 18 June 2018  07:56 UTC
Temperature: 25.3°C (78°F)
Dewpoint: 22.9°C (73°F) [RH = 87%]
Pressure (altimeter): 30.07 inches Hg (1018.4 mb)
[Sea-level pressure: 1018.6 mb]
Winds: from the ENE (60 degrees) at 7 MPH (6 knots; 3.1 m/s)
Visibility: 10 or more miles (16+ km)
Ceiling: at least 12,000 feet AGL
Clouds: sky clear below 12,000 feet AGL
Present Weather:
SOME DATA ABOVE MAY BE INACCURATE!!!
"$" is an indication the sensor requires maintenance
KMCF 180756Z AUTO 06006KT 10SM CLR 25/23 A3007 RMK AO2 DZB46 SLP186 P0000 T02530229 FZRANO $

Conditions at: KMCF observed 18 June 2018  06:56 UTC
Temperature: 26.2°C (79°F)
Dewpoint: 23.0°C (73°F) [RH = 83%]
Pressure (altimeter): 30.09 inches Hg (1019.0 mb)
[Sea-level pressure: 1019.2 mb]
Winds: from the E (80 degrees) at 6 MPH (5 knots; 2.6 m/s)
Visibility: 10 or more miles (16+ km)
Ceiling: at least 12,000 feet AGL
Clouds: sky clear below 12,000 feet AGL
Present Weather:
SOME DATA ABOVE MAY BE INACCURATE!!!
"$" is an indication the sensor requires maintenance
KMCF 180656Z AUTO 08005KT 10SM CLR 26/23 A3009 RMK AO2 RAB0556E14DZB14E19RAB19E29DZB29E30 SLP192 P0000 T02620230 FZRANO $

Conditions at: KMCF observed 18 June 2018  05:56 UTC
Temperature: 26.5°C (80°F)
Dewpoint: 22.7°C (73°F) [RH = 80%]
Pressure (altimeter): 30.10 inches Hg (1019.4 mb)
[Sea-level pressure: 1019.6 mb]
Winds: from the E (100 degrees) at 5 MPH (4 knots; 2.1 m/s)
Visibility: 10 or more miles (16+ km)
Ceiling: at least 12,000 feet AGL
Clouds: sky clear below 12,000 feet AGL
Present Weather:
SOME DATA ABOVE MAY BE INACCURATE!!!
"$" is an indication the sensor requires maintenance
KMCF 180556Z AUTO 10004KT 10SM CLR 27/23 A3010 RMK AO2 DZB45E47RAB47 SLP196 P0000 60000 T02650227 10308 20265 58002 FZRANO $

Conditions at: KMCF observed 18 June 2018  04:56 UTC
Temperature: 27.0°C (81°F)
Dewpoint: 22.0°C (72°F) [RH = 74%]
Pressure (altimeter): 30.07 inches Hg (1018.4 mb)
Winds: from the NE (40 degrees) at 5 MPH (4 knots; 2.1 m/s)
Visibility: 10 or more miles (16+ km)
Ceiling: at least 12,000 feet AGL
Clouds: sky clear below 12,000 feet AGL
Present Weather: no significant weather observed at this time
KMCF 180456Z 04004KT 10SM CLR 27/22 A3007 RMK AO2A WND DATA ESTMD ALSTG/SLP ESTMD

Conditions at: KMCF observed 18 June 2018  03:56 UTC
Temperature: 27.0°C (81°F)
Dewpoint: 21.0°C (70°F) [RH = 70%]
Pressure (altimeter): 30.07 inches Hg (1018.4 mb)
Winds: from the NE (40 degrees) at 6 MPH (5 knots; 2.6 m/s)
Visibility: 10 or more miles (16+ km)
Ceiling: at least 12,000 feet AGL
Clouds: sky clear below 12,000 feet AGL
Present Weather: no significant weather observed at this time
KMCF 180356Z 04005KT 10SM CLR 27/21 A3007 RMK AO2A WND DATA ESTMD ALSTG/SLP ESTMD

Conditions at: KMCF observed 18 June 2018  02:56 UTC
Temperature: 27.0°C (81°F)
Dewpoint: 20.0°C (68°F) [RH = 66%]
Pressure (altimeter): 30.07 inches Hg (1018.4 mb)
Winds: from the NE (50 degrees) at 5 MPH (4 knots; 2.1 m/s)
Visibility: 10 or more miles (16+ km)
Ceiling: at least 12,000 feet AGL
Clouds: sky clear below 12,000 feet AGL
Present Weather: no significant weather observed at this time
KMCF 180256Z 05004KT 10SM CLR 27/20 A3007 RMK AO2A WND DATA ESTMD ALSTG/SLP ESTMD

Conditions at: KMCF observed 18 June 2018  01:56 UTC
Temperature: 28.6°C (83°F)
Dewpoint: 22.3°C (72°F) [RH = 69%]
Pressure (altimeter): 30.10 inches Hg (1019.4 mb)
[Sea-level pressure: 1019.6 mb]
Winds: from the NE (50 degrees) at 10 MPH (9 knots; 4.7 m/s)
Visibility: 10 or more miles (16+ km)
Ceiling: at least 12,000 feet AGL
Clouds: sky clear below 12,000 feet AGL
Present Weather:
SOME DATA ABOVE MAY BE INACCURATE!!!
"$" is an indication the sensor requires maintenance
KMCF 180156Z AUTO 05009KT 10SM CLR 29/22 A3010 RMK AO2 LTG DSNT NW-N AND SW SLP196 T02860223 FZRANO $

Conditions at: KMCF observed 18 June 2018  00:56 UTC
Temperature: 29.9°C (86°F)
Dewpoint: 21.8°C (71°F) [RH = 62%]
Pressure (altimeter): 30.09 inches Hg (1019.0 mb)
[Sea-level pressure: 1019.2 mb]
Winds: from the NE (50 degrees) at 15 MPH (13 knots; 6.8 m/s)
Visibility: 10 or more miles (16+ km)
Ceiling: at least 12,000 feet AGL
Clouds: sky clear below 12,000 feet AGL
Present Weather:
SOME DATA ABOVE MAY BE INACCURATE!!!
"$" is an indication the sensor requires maintenance
KMCF 180056Z AUTO 05013KT 10SM CLR 30/22 A3009 RMK AO2 SLP192 T02990218 FZRANO $

Conditions at: KMCF observed 17 June 2018  23:56 UTC
Temperature: 30.9°C (88°F)
Dewpoint: 20.8°C (69°F) [RH = 55%]
Pressure (altimeter): 30.05 inches Hg (1017.7 mb)
[Sea-level pressure: 1017.9 mb]
Winds: from the NE (40 degrees) at 6 MPH (5 knots; 2.6 m/s)
Visibility: 10 or more miles (16+ km)
Ceiling: at least 12,000 feet AGL
Clouds: few clouds at 16000 feet AGL
Present Weather:
SOME DATA ABOVE MAY BE INACCURATE!!!
"$" is an indication the sensor requires maintenance
KMCF 172356Z AUTO 04005KT 10SM FEW160 31/21 A3005 RMK AO2 SLP179 T03090208 10337 20309 55005 FZRANO $

Conditions at: KMCF observed 17 June 2018  22:56 UTC
Temperature: 33.1°C (92°F)
Dewpoint: 21.6°C (71°F) [RH = 51%]
Pressure (altimeter): 30.05 inches Hg (1017.7 mb)
[Sea-level pressure: 1017.9 mb]
Winds: from the NE (40 degrees) at 7 MPH (6 knots; 3.1 m/s)
Visibility: 10 or more miles (16+ km)
Ceiling: at least 12,000 feet AGL
Clouds: sky clear below 12,000 feet AGL
Present Weather:
SOME DATA ABOVE MAY BE INACCURATE!!!
"$" is an indication the sensor requires maintenance
KMCF 172256Z AUTO 04006KT 10SM CLR 33/22 A3005 RMK AO2 SLP179 T03310216 FZRANO $

Conditions at: KMCF observed 17 June 2018  21:56 UTC
Temperature: 33.2°C (92°F)
Dewpoint: 22.0°C (72°F) [RH = 52%]
Pressure (altimeter): 30.05 inches Hg (1017.7 mb)
[Sea-level pressure: 1017.9 mb]
Winds: from the NW (310 degrees) at 3 MPH (3 knots; 1.6 m/s)
Visibility: 10 or more miles (16+ km)
Ceiling: at least 12,000 feet AGL
Clouds: sky clear below 12,000 feet AGL
Present Weather:
SOME DATA ABOVE MAY BE INACCURATE!!!
"$" is an indication the sensor requires maintenance
KMCF 172156Z AUTO 31003KT 10SM CLR 33/22 A3005 RMK AO2 LTG DSNT N SLP179 T03320220 FZRANO $

Conditions at: KMCF observed 17 June 2018  20:56 UTC
Temperature: 33.5°C (92°F)
Dewpoint: 21.9°C (71°F) [RH = 51%]
Pressure (altimeter): 30.07 inches Hg (1018.4 mb)
[Sea-level pressure: 1018.6 mb]
Winds: calm
Visibility: 10 or more miles (16+ km)
Ceiling: 5500 feet AGL
Clouds: broken clouds at 5500 feet AGL
Present Weather:
SOME DATA ABOVE MAY BE INACCURATE!!!
"$" is an indication the sensor requires maintenance
KMCF 172056Z AUTO 00000KT 10SM BKN055 34/22 A3007 RMK AO2 SLP186 T03350219 57014 FZRANO $

Conditions at: KMCF observed 17 June 2018  19:56 UTC
Temperature: 33.1°C (92°F)
Dewpoint: 22.2°C (72°F) [RH = 53%]
Pressure (altimeter): 30.08 inches Hg (1018.7 mb)
[Sea-level pressure: 1018.9 mb]
Winds: from the E (80 degrees) at 5 MPH (4 knots; 2.1 m/s)
Visibility: 10 or more miles (16+ km)
Ceiling: 5500 feet AGL
Clouds: broken clouds at 5500 feet AGL
Present Weather:
SOME DATA ABOVE MAY BE INACCURATE!!!
"$" is an indication the sensor requires maintenance
KMCF 171956Z AUTO 08004KT 10SM BKN055 33/22 A3008 RMK AO2 SLP189 T03310222 FZRANO $

Conditions at: KMCF observed 17 June 2018  18:56 UTC
Temperature: 32.4°C (90°F)
Dewpoint: 22.4°C (72°F) [RH = 56%]
Pressure (altimeter): 30.09 inches Hg (1019.0 mb)
[Sea-level pressure: 1019.2 mb]
Winds: from the NE (50 degrees) at 5 MPH (4 knots; 2.1 m/s)
Visibility: 10 or more miles (16+ km)
Ceiling: 16000 feet AGL
Clouds: scattered clouds at 5500 feet AGL
broken clouds at 16000 feet AGL
Present Weather:
SOME DATA ABOVE MAY BE INACCURATE!!!
"$" is an indication the sensor requires maintenance
KMCF 171856Z AUTO 05004KT 10SM SCT055 BKN160 32/22 A3009 RMK AO2 SLP192 T03240224 FZRANO $

Conditions at: KMCF observed 17 June 2018  17:56 UTC
Temperature: 32.6°C (91°F)
Dewpoint: 21.1°C (70°F) [RH = 51%]
Pressure (altimeter): 30.11 inches Hg (1019.7 mb)
[Sea-level pressure: 1019.9 mb]
Winds: from the NE (50 degrees) at 8 MPH (7 knots; 3.6 m/s)
Visibility: 10 or more miles (16+ km)
Ceiling: at least 12,000 feet AGL
Clouds: few clouds at 11000 feet AGL
scattered clouds at 14000 feet AGL
scattered clouds at 18000 feet AGL
Present Weather:
SOME DATA ABOVE MAY BE INACCURATE!!!
"$" is an indication the sensor requires maintenance
KMCF 171756Z AUTO 05007KT 10SM FEW110 SCT140 SCT180 33/21 A3011 RMK AO2 SLP199 60000 T03260211 10334 20248 58009 FZRANO $

Conditions at: KMCF observed 17 June 2018  16:56 UTC
Temperature: 33.2°C (92°F)
Dewpoint: 21.0°C (70°F) [RH = 49%]
Pressure (altimeter): 30.12 inches Hg (1020.1 mb)
[Sea-level pressure: 1020.3 mb]
Winds: from the E (100 degrees) at 7 MPH (6 knots; 3.1 m/s)
Visibility: 10 or more miles (16+ km)
Ceiling: 15000 feet AGL
Clouds: few clouds at 4600 feet AGL
few clouds at 11000 feet AGL
scattered clouds at 13000 feet AGL
broken clouds at 15000 feet AGL
Present Weather:
SOME DATA ABOVE MAY BE INACCURATE!!!
"$" is an indication the sensor requires maintenance
KMCF 171656Z AUTO 10006KT 10SM FEW046 FEW110 SCT130 BKN150 BKN190 BKN210 33/21 A3012 RMK AO2 DZB33E36 SLP203 P0000 T03320210 FZRANO $

Conditions at: KMCF observed 17 June 2018  16:36 UTC
Temperature: 33.0°C (91°F)
Dewpoint: 22.0°C (72°F) [RH = 53%]
Pressure (altimeter): 30.13 inches Hg (1020.4 mb)
[Sea-level pressure: 1020.6 mb]
Winds: from the E (80 degrees) at 8 MPH (7 knots; 3.6 m/s)
Visibility: 10 or more miles (16+ km)
Ceiling: 17000 feet AGL
Clouds: few clouds at 4600 feet AGL
scattered clouds at 13000 feet AGL
scattered clouds at 15000 feet AGL
broken clouds at 17000 feet AGL
Present Weather:
SOME DATA ABOVE MAY BE INACCURATE!!!
"$" is an indication the sensor requires maintenance
KMCF 171636Z AUTO 08007KT 10SM FEW046 SCT130 SCT150 BKN170 BKN190 BKN210 33/22 A3013 RMK AO2 DZB33E36 SLP206 FZRANO $

Conditions at: KMCF observed 17 June 2018  16:33 UTC
Temperature: 33.0°C (91°F)
Dewpoint: 22.0°C (72°F) [RH = 53%]
Pressure (altimeter): 30.13 inches Hg (1020.4 mb)
[Sea-level pressure: 1020.6 mb]
Winds: from the E (90 degrees) at 9 MPH (8 knots; 4.2 m/s)
Visibility: 10 or more miles (16+ km)
Ceiling: 19000 feet AGL
Clouds: few clouds at 4600 feet AGL
scattered clouds at 14000 feet AGL
scattered clouds at 17000 feet AGL
broken clouds at 19000 feet AGL
Present Weather: -DZ  (light drizzle)
SOME DATA ABOVE MAY BE INACCURATE!!!
"$" is an indication the sensor requires maintenance
KMCF 171633Z AUTO 09008KT 10SM -DZ FEW046 SCT140 SCT170 BKN190 BKN220 33/22 A3013 RMK AO2 DZB33 SLP206 FZRANO $

Conditions at: KMCF observed 17 June 2018  15:56 UTC
Temperature: 31.6°C (89°F)
Dewpoint: 22.8°C (73°F) [RH = 60%]
Pressure (altimeter): 30.13 inches Hg (1020.4 mb)
[Sea-level pressure: 1020.6 mb]
Winds: from the E (90 degrees) at 5 MPH (4 knots; 2.1 m/s)
Visibility: 10 or more miles (16+ km)
Ceiling: at least 12,000 feet AGL
Clouds: few clouds at 14000 feet AGL
scattered clouds at 17000 feet AGL
scattered clouds at 20000 feet AGL
Present Weather:
SOME DATA ABOVE MAY BE INACCURATE!!!
"$" is an indication the sensor requires maintenance
KMCF 171556Z AUTO 09004KT 10SM FEW140 SCT170 SCT200 32/23 A3013 RMK AO2 RAB34E44 SLP206 P0000 T03160228 FZRANO $

Conditions at: KMCF observed 17 June 2018  15:44 UTC
Temperature: 32.0°C (90°F)
Dewpoint: 23.0°C (73°F) [RH = 59%]
Pressure (altimeter): 30.13 inches Hg (1020.4 mb)
[Sea-level pressure: 1020.6 mb]
Winds: from the ENE (60 degrees) at 6 MPH (5 knots; 2.6 m/s)
Visibility: 10 or more miles (16+ km)
Ceiling: 19000 feet AGL
Clouds: few clouds at 15000 feet AGL
broken clouds at 19000 feet AGL
Present Weather:
SOME DATA ABOVE MAY BE INACCURATE!!!
"$" is an indication the sensor requires maintenance
KMCF 171544Z AUTO 06005KT 10SM FEW150 BKN190 32/23 A3013 RMK AO2 RAB34E44 SLP206 FZRANO $

Conditions at: KMCF observed 17 June 2018  15:34 UTC
Temperature: 32.0°C (90°F)
Dewpoint: 23.0°C (73°F) [RH = 59%]
Pressure (altimeter): 30.14 inches Hg (1020.7 mb)
[Sea-level pressure: 1020.9 mb]
Winds: from the NE (40 degrees) at 7 MPH (6 knots; 3.1 m/s)
Visibility: 10 or more miles (16+ km)
Ceiling: at least 12,000 feet AGL
Clouds: few clouds at 14000 feet AGL
few clouds at 19000 feet AGL
Present Weather: -RA  (light rain)
SOME DATA ABOVE MAY BE INACCURATE!!!
"$" is an indication the sensor requires maintenance
KMCF 171534Z AUTO 04006KT 10SM -RA FEW140 FEW190 32/23 A3014 RMK AO2 RAB34 SLP209 FZRANO $

Conditions at: KMCF observed 17 June 2018  14:56 UTC
Temperature: 30.9°C (88°F)
Dewpoint: 23.0°C (73°F) [RH = 63%]
Pressure (altimeter): 30.13 inches Hg (1020.4 mb)
[Sea-level pressure: 1020.6 mb]
Winds: from the ENE (60 degrees) at 7 MPH (6 knots; 3.1 m/s)
Visibility: 10 or more miles (16+ km)
Ceiling: at least 12,000 feet AGL
Clouds: few clouds at 19000 feet AGL
Present Weather:
SOME DATA ABOVE MAY BE INACCURATE!!!
"$" is an indication the sensor requires maintenance
KMCF 171456Z AUTO 06006KT 10SM FEW190 31/23 A3013 RMK AO2 SLP206 T03090230 51009 FZRANO $

Conditions at: KMCF observed 17 June 2018  13:56 UTC
Temperature: 29.0°C (84°F)
Dewpoint: 23.6°C (74°F) [RH = 73%]
Pressure (altimeter): 30.13 inches Hg (1020.4 mb)
[Sea-level pressure: 1020.6 mb]
Winds: calm
Visibility: 10 or more miles (16+ km)
Ceiling: at least 12,000 feet AGL
Clouds: sky clear below 12,000 feet AGL
Present Weather:
SOME DATA ABOVE MAY BE INACCURATE!!!
"$" is an indication the sensor requires maintenance
KMCF 171356Z AUTO 00000KT 10SM CLR 29/24 A3013 RMK AO2 SLP206 T02900236 FZRANO $

Conditions at: KMCF observed 17 June 2018  12:56 UTC
Temperature: 27.6°C (82°F)
Dewpoint: 23.2°C (74°F) [RH = 77%]
Pressure (altimeter): 30.13 inches Hg (1020.4 mb)
[Sea-level pressure: 1020.6 mb]
Winds: calm
Visibility: 10 or more miles (16+ km)
Ceiling: at least 12,000 feet AGL
Clouds: sky clear below 12,000 feet AGL
Present Weather:
SOME DATA ABOVE MAY BE INACCURATE!!!
"$" is an indication the sensor requires maintenance
KMCF 171256Z AUTO 00000KT 10SM CLR 28/23 A3013 RMK AO2 SLP206 T02760232 FZRANO $

Conditions at: KMCF observed 17 June 2018  11:56 UTC
Temperature: 24.7°C (76°F)
Dewpoint: 22.9°C (73°F) [RH = 90%]
Pressure (altimeter): 30.11 inches Hg (1019.7 mb)
[Sea-level pressure: 1019.9 mb]
Winds: calm
Visibility: 10 or more miles (16+ km)
Ceiling: at least 12,000 feet AGL
Clouds: sky clear below 12,000 feet AGL
Present Weather:
SOME DATA ABOVE MAY BE INACCURATE!!!
"$" is an indication the sensor requires maintenance
KMCF 171156Z AUTO 00000KT 10SM CLR 25/23 A3011 RMK AO2 SLP199 60000 T02470229 10256 20233 52009 FZRANO $

Conditions at: KMCF observed 17 June 2018  10:56 UTC
Temperature: 23.7°C (75°F)
Dewpoint: 21.7°C (71°F) [RH = 89%]
Pressure (altimeter): 30.10 inches Hg (1019.4 mb)
[Sea-level pressure: 1019.6 mb]
Winds: calm
Visibility: 10 or more miles (16+ km)
Ceiling: at least 12,000 feet AGL
Clouds: sky clear below 12,000 feet AGL
Present Weather:
SOME DATA ABOVE MAY BE INACCURATE!!!
"$" is an indication the sensor requires maintenance
KMCF 171056Z AUTO 00000KT 10SM CLR 24/22 A3010 RMK AO2 DZB09E19 SLP196 P0000 T02370217 FZRANO $

Conditions at: KMCF observed 17 June 2018  09:56 UTC
Temperature: 23.9°C (75°F)
Dewpoint: 21.8°C (71°F) [RH = 88%]
Pressure (altimeter): 30.09 inches Hg (1019.0 mb)
[Sea-level pressure: 1019.2 mb]
Winds: calm
Visibility: 10 or more miles (16+ km)
Ceiling: at least 12,000 feet AGL
Clouds: sky clear below 12,000 feet AGL
Present Weather:
SOME DATA ABOVE MAY BE INACCURATE!!!
"$" is an indication the sensor requires maintenance
KMCF 170956Z AUTO 00000KT 10SM CLR 24/22 A3009 RMK AO2 DZB00E23DZB32E43 SLP192 P0000 T02390218 FZRANO $

Conditions at: KMCF observed 17 June 2018  08:56 UTC
Temperature: 24.6°C (76°F)
Dewpoint: 21.7°C (71°F) [RH = 84%]
Pressure (altimeter): 30.08 inches Hg (1018.7 mb)
[Sea-level pressure: 1018.9 mb]
Winds: from the E (90 degrees) at 5 MPH (4 knots; 2.1 m/s)
Visibility: 10 or more miles (16+ km)
Ceiling: at least 12,000 feet AGL
Clouds: sky clear below 12,000 feet AGL
Present Weather:
SOME DATA ABOVE MAY BE INACCURATE!!!
"$" is an indication the sensor requires maintenance
KMCF 170856Z AUTO 09004KT 10SM CLR 25/22 A3008 RMK AO2 SLP189 60000 T02460217 55001 FZRANO $

Conditions at: KMCF observed 17 June 2018  07:56 UTC
Temperature: 25.0°C (77°F)
Dewpoint: 21.7°C (71°F) [RH = 82%]
Pressure (altimeter): 30.07 inches Hg (1018.4 mb)
[Sea-level pressure: 1018.6 mb]
Winds: from the ENE (70 degrees) at 6 MPH (5 knots; 2.6 m/s)
Visibility: 10 or more miles (16+ km)
Ceiling: at least 12,000 feet AGL
Clouds: sky clear below 12,000 feet AGL
Present Weather:
SOME DATA ABOVE MAY BE INACCURATE!!!
"$" is an indication the sensor requires maintenance
KMCF 170756Z AUTO 07005KT 10SM CLR 25/22 A3007 RMK AO2 SLP186 T02500217 FZRANO $